Time;durP1;ratioP1;P1;durP2;ratioP2;P2;SDS_P1;SDS_P2;PMS_P1;PMS_P2;Temp;Humidity;BMP_temperature;BMP_pressure;BME280_temperature;BME280_humidity;BME280_pressure;Samples;Min_cycle;Max_cycle;Signal;HPM_P1;HPM_P2
2023/01/18 00:00:03;;;;;;;22.70;16.40;;;22.20;57.30;;;;;;221706;1267;25548;-51
2023/01/18 00:05:27;;;;;;;24.20;17.20;;;22.10;57.00;;;;;;221836;1251;22528;-52
2023/01/18 00:10:31;;;;;;;23.10;15.70;;;22.10;56.90;;;;;;221780;1263;22539;-53
2023/01/18 00:15:37;;;;;;;21.90;15.80;;;22.00;56.90;;;;;;221558;1267;22576;-55
2023/01/18 00:20:41;;;;;;;20.20;16.20;;;22.00;56.90;;;;;;221883;1248;24307;-53
2023/01/18 00:25:45;;;;;;;22.70;15.70;;;21.90;56.90;;;;;;221659;1260;23661;-53
2023/01/18 00:30:49;;;;;;;18.90;15.80;;;21.90;57.10;;;;;;221737;1250;24215;-53
2023/01/18 00:35:58;;;;;;;23.30;16.00;;;21.80;56.90;;;;;;222002;1270;22812;-53
2023/01/18 00:41:03;;;;;;;21.60;16.00;;;21.80;57.10;;;;;;221713;1260;26497;-53
2023/01/18 00:46:09;;;;;;;19.60;13.90;;;21.70;57.10;;;;;;221846;1258;22666;-53
2023/01/18 00:51:17;;;;;;;18.20;14.00;;;21.70;57.20;;;;;;221777;1267;22720;-53
2023/01/18 00:56:21;;;;;;;20.50;15.00;;;21.60;57.20;;;;;;221831;1260;23877;-52
2023/01/18 01:01:25;;;;;;;20.20;14.70;;;21.60;57.40;;;;;;221786;1263;22657;-52
2023/01/18 01:06:43;;;;;;;21.80;14.80;;;21.60;57.70;;;;;;221847;1258;25563;-53
2023/01/18 01:27:58;;;;;;;17.70;13.70;;;21.40;58.30;;;;;;221905;1264;25147;-50
2023/01/18 01:33:02;;;;;;;19.70;13.90;;;21.40;57.70;;;;;;222010;1248;24205;-50
2023/01/18 01:38:07;;;;;;;16.20;13.00;;;21.40;57.80;;;;;;221880;1267;22546;-49
2023/01/18 01:43:12;;;;;;;18.00;13.50;;;21.30;58.00;;;;;;221950;1266;22546;-50
2023/01/18 01:48:16;;;;;;;17.70;14.00;;;21.60;58.30;;;;;;221821;1263;22524;-49
2023/01/18 01:53:21;;;;;;;17.60;12.70;;;21.90;56.80;;;;;;221967;1270;22613;-50
2023/01/18 01:58:28;;;;;;;15.20;12.10;;;22.20;56.90;;;;;;221790;1271;24276;-52
2023/01/18 02:03:32;;;;;;;16.50;12.30;;;22.40;55.90;;;;;;221777;1270;24806;-52
2023/01/18 02:08:36;;;;;;;15.00;12.10;;;22.60;55.50;;;;;;221625;1260;258307;-48
2023/01/18 02:13:40;;;;;;;15.80;12.80;;;22.70;55.30;;;;;;221812;1262;25344;-48
2023/01/18 02:18:48;;;;;;;16.80;11.90;;;22.90;54.90;;;;;;221469;1267;22521;-51
2023/01/18 02:24:30;;;;;;;16.30;11.80;;;22.90;55.20;;;;;;227542;1267;24222;-51
2023/01/18 02:30:02;;;;;;;13.80;11.30;;;23.10;54.30;;;;;;228032;1262;22691;-50
2023/01/18 02:35:17;;;;;;;16.00;12.20;;;23.20;54.00;;;;;;221464;1267;24487;-52
2023/01/18 02:40:31;;;;;;;12.70;11.00;;;23.20;54.00;;;;;;221790;1263;23923;-50
2023/01/18 02:51:06;;;;;;;13.30;10.80;;;23.10;53.80;;;;;;221943;1267;22547;-50
2023/01/18 02:56:29;;;;;;;13.20;11.00;;;23.10;53.70;;;;;;221814;1257;25341;-47
2023/01/18 03:01:40;;;;;;;13.70;11.30;;;23.10;53.60;;;;;;221711;1264;22543;-51
2023/01/18 03:06:50;;;;;;;14.10;10.80;;;23.20;53.60;;;;;;221815;1256;23017;-49
2023/01/18 03:12:02;;;;;;;11.10;9.90;;;23.20;54.10;;;;;;221881;1267;24531;-49
2023/01/18 03:17:18;;;;;;;13.40;10.90;;;23.20;53.70;;;;;;221845;1263;22555;-50
2023/01/18 03:23:36;;;;;;;11.40;10.00;;;23.20;54.00;;;;;;221918;1270;22640;-48
2023/01/18 03:38:45;;;;;;;14.90;10.90;;;23.30;54.00;;;;;;221743;1270;22559;-50
2023/01/18 03:43:50;;;;;;;10.90;9.50;;;23.30;53.60;;;;;;221810;1263;26322;-51
2023/01/18 03:48:55;;;;;;;12.10;9.70;;;23.30;53.70;;;;;;221858;1270;22664;-48
2023/01/18 03:54:24;;;;;;;11.60;9.70;;;23.30;53.50;;;;;;222124;1263;22542;-50
2023/01/18 03:59:33;;;;;;;10.70;9.60;;;23.40;53.80;;;;;;222069;1263;22618;-49
2023/01/18 04:04:38;;;;;;;11.10;9.50;;;23.40;53.50;;;;;;221870;1256;22781;-51
2023/01/18 04:09:42;;;;;;;11.00;9.80;;;23.30;53.60;;;;;;221792;1263;22523;-52
2023/01/18 04:14:47;;;;;;;11.10;9.90;;;23.20;54.20;;;;;;221840;1256;24261;-52
2023/01/18 04:19:52;;;;;;;12.50;8.80;;;23.00;53.90;;;;;;221873;1250;22781;-51
2023/01/18 04:24:56;;;;;;;11.20;9.60;;;23.00;54.30;;;;;;221924;1270;22554;-50
2023/01/18 04:30:00;;;;;;;9.50;8.50;;;22.80;54.40;;;;;;221831;1253;24238;-50
2023/01/18 04:35:05;;;;;;;11.70;9.10;;;22.80;54.50;;;;;;222192;1269;22676;-48
2023/01/18 04:40:10;;;;;;;10.20;9.10;;;22.70;55.00;;;;;;222015;1263;25348;-48
2023/01/18 04:45:17;;;;;;;10.80;9.10;;;22.60;54.90;;;;;;221968;1267;22540;-48
2023/01/18 04:50:21;;;;;;;10.20;8.90;;;22.50;55.30;;;;;;221766;1266;22787;-49
2023/01/18 04:55:25;;;;;;;10.10;9.10;;;22.50;55.00;;;;;;222111;1269;25303;-49
2023/01/18 05:00:30;;;;;;;10.10;8.60;;;22.40;55.10;;;;;;221980;1259;25351;-51
2023/01/18 05:05:34;;;;;;;9.40;8.40;;;22.40;55.30;;;;;;222100;1270;22994;-51
2023/01/18 05:10:38;;;;;;;10.50;8.90;;;22.40;55.30;;;;;;221835;1262;22519;-52
2023/01/18 05:15:42;;;;;;;11.20;9.00;;;22.30;55.30;;;;;;221996;1267;22665;-49
2023/01/18 05:20:47;;;;;;;10.50;9.20;;;22.30;55.40;;;;;;222005;1256;22666;-51
2023/01/18 05:25:56;;;;;;;10.60;8.90;;;22.20;55.50;;;;;;222147;1266;22926;-49
2023/01/18 05:31:00;;;;;;;9.10;8.20;;;22.10;55.50;;;;;;222085;1254;25496;-50
2023/01/18 05:36:04;;;;;;;9.70;8.70;;;22.10;55.60;;;;;;221958;1263;25115;-50
2023/01/18 05:41:09;;;;;;;9.50;8.50;;;22.00;55.40;;;;;;221822;1263;24007;-49
2023/01/18 05:46:13;;;;;;;9.10;7.80;;;22.00;55.60;;;;;;222082;1267;23482;-52
2023/01/18 05:51:17;;;;;;;10.40;9.00;;;21.90;55.90;;;;;;221903;1259;22647;-50
2023/01/18 05:56:22;;;;;;;8.70;7.80;;;21.90;55.50;;;;;;221822;1263;24864;-52
2023/01/18 06:01:27;;;;;;;9.40;8.40;;;21.90;55.60;;;;;;221902;1267;22534;-48
2023/01/18 06:06:31;;;;;;;9.50;8.50;;;21.80;56.00;;;;;;221925;1270;23107;-50
2023/01/18 06:11:37;;;;;;;10.60;8.10;;;21.80;55.80;;;;;;221826;1271;22551;-49
2023/01/18 06:16:41;;;;;;;10.60;8.50;;;21.70;55.80;;;;;;221890;1263;22633;-49
2023/01/18 06:21:46;;;;;;;8.90;8.00;;;21.70;56.20;;;;;;221931;1250;24286;-47
2023/01/18 06:26:50;;;;;;;9.20;7.70;;;21.60;56.20;;;;;;222045;1256;22572;-49
2023/01/18 06:31:56;;;;;;;14.00;8.90;;;21.50;56.80;;;;;;222021;1256;22820;-47
2023/01/18 06:37:00;;;;;;;12.00;8.50;;;21.70;56.60;;;;;;221942;1256;25303;-50
2023/01/18 06:42:05;;;;;;;9.30;8.00;;;22.10;56.60;;;;;;221961;1251;22646;-54
2023/01/18 06:47:09;;;;;;;14.60;8.10;;;22.40;55.90;;;;;;221958;1266;24238;-57
2023/01/18 06:52:14;;;;;;;9.30;8.00;;;22.70;55.40;;;;;;222106;1250;23871;-53
2023/01/18 06:57:20;;;;;;;10.50;7.50;;;22.90;55.20;;;;;;221927;1267;22686;-49
2023/01/18 07:02:24;;;;;;;9.00;7.60;;;22.90;55.20;;;;;;221955;1247;25172;-52
2023/01/18 07:07:29;;;;;;;11.40;7.80;;;23.00;55.20;;;;;;221786;1270;22532;-52
2023/01/18 07:12:33;;;;;;;10.80;7.50;;;23.00;56.20;;;;;;221889;1258;24105;-52
2023/01/18 07:17:37;;;;;;;10.70;7.60;;;23.00;55.80;;;;;;221861;1257;24213;-52
2023/01/18 07:22:41;;;;;;;12.30;7.40;;;23.10;55.60;;;;;;221932;1263;22490;-53
2023/01/18 07:27:47;;;;;;;10.30;7.60;;;23.00;55.70;;;;;;221558;1251;22528;-50
2023/01/18 07:32:52;;;;;;;12.20;7.50;;;23.00;55.80;;;;;;223709;1263;24153;-49
2023/01/18 07:37:57;;;;;;;15.60;7.40;;;23.00;55.20;;;;;;222002;1259;22778;-52
2023/01/18 07:43:02;;;;;;;12.40;7.90;;;23.10;55.30;;;;;;221830;1259;22767;-53
2023/01/18 07:48:06;;;;;;;13.00;8.00;;;23.10;54.90;;;;;;221833;1257;27646;-52
2023/01/18 07:53:11;;;;;;;9.20;7.40;;;23.10;54.50;;;;;;223095;1263;24221;-50
2023/01/18 07:58:16;;;;;;;8.70;6.90;;;23.10;54.30;;;;;;221880;1267;25271;-50
2023/01/18 08:03:20;;;;;;;11.90;7.30;;;23.20;54.30;;;;;;221722;1256;22612;-52
2023/01/18 08:08:27;;;;;;;11.30;7.20;;;23.10;54.20;;;;;;222000;1270;22557;-52
2023/01/18 08:13:32;;;;;;;8.80;7.90;;;23.20;54.00;;;;;;221819;1259;25261;-50
2023/01/18 08:18:36;;;;;;;10.30;7.00;;;23.30;53.90;;;;;;221959;1269;22531;-52
2023/01/18 08:23:40;;;;;;;9.50;6.90;;;23.30;53.70;;;;;;222035;1263;22674;-53
2023/01/18 08:28:45;;;;;;;8.70;7.00;;;23.40;53.50;;;;;;221884;1266;24206;-52
2023/01/18 08:33:49;;;;;;;7.20;6.50;;;23.40;53.40;;;;;;222337;1260;23870;-51
2023/01/18 08:38:58;;;;;;;9.40;7.10;;;23.40;53.40;;;;;;221962;1256;22544;-52
2023/01/18 08:44:02;;;;;;;8.50;7.00;;;23.40;53.30;;;;;;221916;1264;22520;-48
2023/01/18 08:49:06;;;;;;;8.40;6.70;;;23.30;53.20;;;;;;222040;1257;22720;-51
2023/01/18 08:54:11;;;;;;;7.80;6.60;;;23.30;53.30;;;;;;221832;1262;22660;-51
2023/01/18 08:59:15;;;;;;;6.80;6.10;;;23.30;53.30;;;;;;221869;1271;23659;-52
2023/01/18 09:04:19;;;;;;;7.00;6.40;;;23.20;53.40;;;;;;221876;1270;24196;-50
2023/01/18 09:09:23;;;;;;;6.70;5.90;;;23.00;53.70;;;;;;221907;1260;22593;-54
2023/01/18 09:14:27;;;;;;;7.40;6.60;;;22.80;54.30;;;;;;221834;1269;25372;-51
2023/01/18 09:19:31;;;;;;;6.80;6.20;;;22.70;54.40;;;;;;221894;1265;25578;-51
2023/01/18 09:24:36;;;;;;;9.90;6.90;;;22.60;54.40;;;;;;221759;1269;24072;-50
2023/01/18 09:29:40;;;;;;;7.10;6.50;;;22.50;54.50;;;;;;221738;1262;24193;-50
2023/01/18 09:34:48;;;;;;;6.60;6.00;;;22.50;54.50;;;;;;221867;1257;22651;-49
2023/01/18 09:39:52;;;;;;;6.30;5.70;;;22.40;54.40;;;;;;221752;1260;25230;-50
2023/01/18 09:44:58;;;;;;;8.00;5.80;;;22.40;54.40;;;;;;221971;1266;22540;-49
2023/01/18 09:50:20;;;;;;;7.60;6.40;;;22.40;54.80;;;;;;221853;1266;22541;-52
2023/01/18 09:55:55;;;;;;;7.20;6.50;;;22.30;54.80;;;;;;221854;1249;23877;-52
2023/01/18 10:01:18;;;;;;;6.50;5.90;;;22.20;54.40;;;;;;221806;1256;25313;-52
2023/01/18 10:06:28;;;;;;;6.50;5.90;;;22.20;54.60;;;;;;221772;1268;22657;-51
2023/01/18 10:11:32;;;;;;;6.90;6.10;;;22.10;54.60;;;;;;222046;1269;24416;-49
2023/01/18 10:16:36;;;;;;;6.00;5.40;;;22.00;54.70;;;;;;221920;1257;22668;-51
2023/01/18 10:22:05;;;;;;;6.90;6.20;;;22.00;54.90;;;;;;222152;1263;24197;-49
2023/01/18 10:27:26;;;;;;;7.20;6.50;;;21.90;54.80;;;;;;222157;1256;24446;-52
2023/01/18 10:32:35;;;;;;;6.50;5.90;;;21.90;54.80;;;;;;221957;1269;22794;-51
2023/01/18 10:37:45;;;;;;;6.90;6.20;;;21.80;54.70;;;;;;221866;1269;25775;-52
2023/01/18 10:42:55;;;;;;;6.50;5.90;;;21.80;54.90;;;;;;222143;1266;24059;-48
2023/01/18 10:48:21;;;;;;;6.40;5.90;;;21.70;55.00;;;;;;221952;1269;25412;-51
2023/01/18 10:53:31;;;;;;;7.10;6.00;;;21.70;55.00;;;;;;221943;1269;22790;-51
2023/01/18 10:58:50;;;;;;;6.70;6.10;;;21.90;54.50;;;;;;221852;1259;23588;-52
2023/01/18 11:04:06;;;;;;;7.30;6.20;;;22.40;53.50;;;;;;222002;1263;24059;-51
2023/01/18 11:09:48;;;;;;;6.10;5.30;;;22.70;53.00;;;;;;221910;1269;22702;-51
2023/01/18 11:14:52;;;;;;;6.50;5.80;;;22.90;52.60;;;;;;221755;1262;22538;-52
2023/01/18 11:20:07;;;;;;;6.50;5.90;;;23.00;52.30;;;;;;221910;1270;22642;-52
2023/01/18 11:25:16;;;;;;;5.60;5.10;;;23.00;52.10;;;;;;221854;1257;24540;-51
2023/01/18 11:30:23;;;;;;;6.20;5.60;;;23.00;52.30;;;;;;222039;1263;23869;-50
2023/01/18 11:35:36;;;;;;;7.40;6.00;;;23.00;52.00;;;;;;222106;1260;25361;-47
2023/01/18 11:40:40;;;;;;;5.60;5.10;;;23.10;51.80;;;;;;222114;1270;22643;-49
2023/01/18 11:45:51;;;;;;;7.00;5.50;;;23.00;52.20;;;;;;221948;1271;22679;-50
2023/01/18 11:51:05;;;;;;;6.40;5.20;;;23.00;52.00;;;;;;222228;1264;22764;-50
2023/01/18 11:56:31;;;;;;;6.80;5.70;;;23.00;52.00;;;;;;222128;1264;24349;-51
2023/01/18 12:02:10;;;;;;;6.00;5.50;;;23.20;51.80;;;;;;221823;1267;25485;-48
2023/01/18 12:07:44;;;;;;;4.90;4.50;;;23.20;51.70;;;;;;221987;1250;24310;-51
2023/01/18 12:13:04;;;;;;;7.20;5.50;;;23.30;51.70;;;;;;221781;1262;24312;-52
2023/01/18 12:18:28;;;;;;;5.80;5.20;;;23.30;51.40;;;;;;221850;1260;24272;-50
2023/01/18 12:23:50;;;;;;;5.70;5.20;;;23.40;51.50;;;;;;221823;1264;22529;-49
2023/01/18 12:29:33;;;;;;;5.20;4.70;;;23.40;51.60;;;;;;221960;1271;22618;-50
2023/01/18 12:34:47;;;;;;;5.60;4.80;;;23.40;51.40;;;;;;221005;1275;22548;-50
2023/01/18 12:40:30;;;;;;;5.80;5.30;;;23.50;51.50;;;;;;220975;1275;22543;-49
2023/01/18 12:45:41;;;;;;;6.60;5.20;;;23.60;51.60;;;;;;221013;1277;22559;-49
2023/01/18 12:50:48;;;;;;;5.30;4.90;;;23.50;51.90;;;;;;220997;1275;25482;-52
2023/01/18 12:55:55;;;;;;;10.90;7.50;;;23.40;52.10;;;;;;220932;1269;22547;-52
2023/01/18 13:01:04;;;;;;;5.10;4.70;;;23.30;52.30;;;;;;220758;1268;22599;-47
2023/01/18 13:06:09;;;;;;;5.30;4.80;;;23.20;52.60;;;;;;220883;1274;22541;-51
2023/01/18 13:11:16;;;;;;;6.20;4.60;;;23.10;52.70;;;;;;221807;1269;25467;-49
2023/01/18 13:16:48;;;;;;;5.10;4.70;;;23.00;52.80;;;;;;221878;1263;24215;-48
2023/01/18 13:22:02;;;;;;;6.10;5.40;;;22.80;52.90;;;;;;222478;1266;22655;-50
2023/01/18 13:27:17;;;;;;;5.50;5.10;;;22.70;53.20;;;;;;221959;1257;23916;-51
2023/01/18 13:32:29;;;;;;;7.10;5.40;;;22.70;53.20;;;;;;221859;1271;22539;-49
2023/01/18 13:38:00;;;;;;;6.40;5.80;;;22.60;53.30;;;;;;221915;1266;22539;-50
2023/01/18 13:43:25;;;;;;;6.00;5.50;;;22.50;53.50;;;;;;221895;1270;24999;-52
2023/01/18 13:48:44;;;;;;;5.60;5.10;;;22.50;53.60;;;;;;222090;1271;25380;-51
2023/01/18 13:53:49;;;;;;;7.30;5.70;;;22.40;53.70;;;;;;221928;1263;25961;-48
2023/01/18 13:58:57;;;;;;;6.10;5.50;;;22.40;53.80;;;;;;222048;1256;25505;-50
2023/01/18 14:04:22;;;;;;;5.90;5.40;;;22.30;53.90;;;;;;222052;1257;24257;-50
2023/01/18 14:09:38;;;;;;;8.80;6.70;;;22.30;54.10;;;;;;221889;1264;154459;-51
2023/01/18 14:15:01;;;;;;;6.40;5.30;;;22.30;54.60;;;;;;221936;1259;22532;-52
2023/01/18 14:20:22;;;;;;;5.80;5.30;;;22.20;54.30;;;;;;222218;1260;25361;-49
2023/01/18 14:25:40;;;;;;;5.70;5.30;;;22.10;54.40;;;;;;221732;1271;24523;-52
2023/01/18 14:30:46;;;;;;;7.70;5.60;;;22.10;54.40;;;;;;221935;1269;22544;-51
2023/01/18 14:35:57;;;;;;;6.50;5.90;;;22.00;54.80;;;;;;222019;1249;24382;-53
2023/01/18 14:41:04;;;;;;;5.70;5.20;;;22.00;54.70;;;;;;222002;1259;24222;-51
2023/01/18 14:46:25;;;;;;;6.00;5.50;;;21.90;54.80;;;;;;221695;1267;26216;-50
2023/01/18 14:51:29;;;;;;;5.70;5.10;;;21.80;54.90;;;;;;221934;1269;23810;-51
2023/01/18 14:56:41;;;;;;;7.20;5.70;;;21.90;54.90;;;;;;222148;1265;22627;-48
2023/01/18 15:01:57;;;;;;;6.40;5.30;;;21.80;54.60;;;;;;222640;1264;23505;-53
2023/01/18 15:07:06;;;;;;;7.20;5.40;;;21.80;54.60;;;;;;222271;1270;26553;-50
2023/01/18 15:12:17;;;;;;;6.70;5.80;;;21.80;54.80;;;;;;221805;1264;24411;-51
2023/01/18 15:17:24;;;;;;;6.00;5.50;;;21.80;54.60;;;;;;222020;1256;22646;-46
2023/01/18 15:22:33;;;;;;;6.10;5.50;;;22.10;54.10;;;;;;221918;1270;23321;-47
2023/01/18 15:27:36;;;;;;;5.90;5.30;;;22.40;53.50;;;;;;221999;1269;22629;-50
2023/01/18 15:32:41;;;;;;;5.30;4.90;;;22.50;53.40;;;;;;222178;1270;22647;-50
2023/01/18 15:37:45;;;;;;;6.40;5.80;;;22.50;53.20;;;;;;221992;1264;24200;-52
2023/01/18 15:43:00;;;;;;;5.00;4.60;;;22.70;52.90;;;;;;222131;1270;23873;-51
2023/01/18 15:48:13;;;;;;;6.20;5.50;;;22.80;52.60;;;;;;221973;1269;24203;-51
2023/01/18 15:53:21;;;;;;;5.30;4.90;;;22.80;52.50;;;;;;222025;1266;22550;-51
2023/01/18 15:58:28;;;;;;;5.50;5.00;;;22.70;52.50;;;;;;221990;1263;22638;-48
2023/01/18 16:03:39;;;;;;;6.10;5.60;;;22.80;52.50;;;;;;222014;1269;22536;-51
2023/01/18 16:09:16;;;;;;;5.60;5.20;;;22.90;52.50;;;;;;221950;1257;22877;-51
2023/01/18 16:14:45;;;;;;;6.60;5.90;;;22.90;52.40;;;;;;221921;1269;22884;-51
2023/01/18 16:19:52;;;;;;;20.50;8.10;;;22.90;51.80;;;;;;222060;1270;22745;-50
2023/01/18 16:25:16;;;;;;;16.00;8.30;;;23.10;51.80;;;;;;221939;1264;23005;-51
2023/01/18 16:30:31;;;;;;;20.10;8.20;;;23.10;51.20;;;;;;221738;1260;25294;-50
2023/01/18 16:35:40;;;;;;;27.00;10.20;;;23.00;50.90;;;;;;221832;1264;22526;-55
2023/01/18 16:40:49;;;;;;;21.00;10.30;;;23.00;51.00;;;;;;221865;1257;25307;-57
2023/01/18 16:45:58;;;;;;;22.80;11.30;;;23.20;50.50;;;;;;221957;1263;22775;-56
2023/01/18 16:51:11;;;;;;;25.10;11.70;;;23.30;49.90;;;;;;221749;1263;24212;-55
2023/01/18 16:56:16;;;;;;;24.50;12.70;;;23.30;49.90;;;;;;221613;1259;24222;-56
2023/01/18 17:01:21;;;;;;;18.40;12.20;;;23.40;49.70;;;;;;221731;1264;23242;-54
2023/01/18 17:06:28;;;;;;;20.30;12.30;;;23.50;49.30;;;;;;221760;1267;25654;-56
2023/01/18 17:11:33;;;;;;;21.10;11.80;;;23.60;49.30;;;;;;221917;1256;22541;-57
2023/01/18 17:16:40;;;;;;;18.00;11.70;;;23.60;49.40;;;;;;221796;1264;22797;-51
2023/01/18 17:21:44;;;;;;;19.20;11.50;;;23.60;49.30;;;;;;221988;1263;22649;-52
2023/01/18 17:26:50;;;;;;;20.80;12.50;;;23.60;49.40;;;;;;221789;1256;24289;-52
2023/01/18 17:31:55;;;;;;;22.40;12.20;;;23.50;49.30;;;;;;221837;1270;23318;-52
2023/01/18 17:37:02;;;;;;;18.80;11.50;;;23.60;49.30;;;;;;221992;1248;22584;-53
2023/01/18 17:42:07;;;;;;;20.70;12.30;;;23.40;49.40;;;;;;221820;1264;22774;-51
2023/01/18 17:47:19;;;;;;;22.70;12.00;;;23.40;50.30;;;;;;221379;1256;22751;-51
2023/01/18 17:52:26;;;;;;;22.50;11.80;;;23.30;51.90;;;;;;223292;1257;22742;-53
2023/01/18 17:57:32;;;;;;;89.00;50.90;;;23.40;52.10;;;;;;221721;1269;22563;-50
2023/01/18 18:02:41;;;;;;;218.00;97.40;;;23.30;51.00;;;;;;221862;1264;23733;-52
2023/01/18 18:07:50;;;;;;;293.40;126.40;;;23.10;50.70;;;;;;222132;1258;23296;-50
2023/01/18 18:12:56;;;;;;;267.40;115.20;;;23.10;51.90;;;;;;221651;1270;22585;-47
2023/01/18 18:18:07;;;;;;;220.90;102.90;;;23.20;51.50;;;;;;221762;1264;24205;-49
2023/01/18 18:23:28;;;;;;;214.10;95.90;;;23.10;51.20;;;;;;221660;1249;22987;-47
2023/01/18 18:28:36;;;;;;;200.80;95.90;;;23.00;51.50;;;;;;221547;1268;22593;-49
2023/01/18 18:33:44;;;;;;;181.30;88.70;;;23.00;51.70;;;;;;221813;1270;22533;-49
2023/01/18 18:38:54;;;;;;;185.60;83.00;;;22.90;51.20;;;;;;221731;1258;24314;-48
2023/01/18 18:43:59;;;;;;;157.10;77.20;;;22.80;51.70;;;;;;221693;1263;23824;-47
2023/01/18 18:49:07;;;;;;;164.80;77.70;;;22.60;52.00;;;;;;221699;1256;25555;-52
2023/01/18 18:54:12;;;;;;;157.10;73.70;;;22.50;52.20;;;;;;221465;1258;24172;-50
2023/01/18 18:59:19;;;;;;;139.10;71.00;;;22.50;52.00;;;;;;221594;1260;25504;-48
2023/01/18 19:04:28;;;;;;;136.10;68.60;;;22.30;52.80;;;;;;221646;1264;22611;-47
2023/01/18 19:09:33;;;;;;;130.60;69.30;;;22.20;53.00;;;;;;221609;1263;22593;-46
2023/01/18 19:14:41;;;;;;;127.50;66.10;;;22.20;53.50;;;;;;221498;1252;22530;-49
2023/01/18 19:19:48;;;;;;;118.10;61.30;;;22.10;53.40;;;;;;221640;1266;25332;-47
2023/01/18 19:24:54;;;;;;;115.80;59.80;;;22.00;53.80;;;;;;221474;1256;22708;-46
2023/01/18 19:30:00;;;;;;;107.30;57.10;;;22.20;53.50;;;;;;221688;1251;22550;-45
2023/01/18 19:35:07;;;;;;;105.80;57.80;;;22.10;53.60;;;;;;221567;1269;22603;-49
2023/01/18 19:40:14;;;;;;;121.60;59.40;;;22.20;54.00;;;;;;221636;1260;22555;-47
2023/01/18 19:45:21;;;;;;;101.80;55.10;;;22.00;54.00;;;;;;221500;1264;22527;-46
2023/01/18 19:50:33;;;;;;;100.00;53.90;;;22.20;53.40;;;;;;221461;1264;22528;-48
2023/01/18 19:55:41;;;;;;;102.60;53.90;;;22.20;53.10;;;;;;221185;1255;24219;-46
2023/01/18 20:00:47;;;;;;;92.90;51.40;;;22.30;53.10;;;;;;221356;1264;22640;-50
2023/01/18 20:05:54;;;;;;;87.10;49.90;;;22.20;53.60;;;;;;221650;1253;26629;-48
2023/01/18 20:11:06;;;;;;;112.00;51.70;;;21.90;53.80;;;;;;221569;1259;22528;-47
2023/01/18 20:16:19;;;;;;;84.80;47.00;;;21.90;53.60;;;;;;221514;1260;24413;-48
2023/01/18 20:21:28;;;;;;;90.40;47.70;;;21.80;53.90;;;;;;221784;1254;23916;-47
2023/01/18 20:26:37;;;;;;;89.00;46.30;;;21.90;53.90;;;;;;221987;1264;22573;-46
2023/01/18 20:31:47;;;;;;;81.00;43.90;;;22.00;55.70;;;;;;221359;1270;22537;-47
2023/01/18 20:36:56;;;;;;;78.50;44.00;;;22.00;55.90;;;;;;221647;1264;22559;-47
2023/01/18 20:42:03;;;;;;;72.20;40.90;;;21.90;55.70;;;;;;221655;1263;25177;-47
2023/01/18 20:47:10;;;;;;;74.90;42.00;;;21.80;55.40;;;;;;221714;1260;22602;-48
2023/01/18 20:52:15;;;;;;;67.90;39.90;;;21.80;55.90;;;;;;221712;1270;22544;-46
2023/01/18 20:57:22;;;;;;;71.90;40.50;;;21.80;57.40;;;;;;221735;1257;24346;-45
2023/01/18 21:02:29;;;;;;;71.00;40.80;;;21.80;57.90;;;;;;221642;1251;23139;-47
2023/01/18 21:07:35;;;;;;;64.00;39.70;;;21.70;57.30;;;;;;223001;1256;24046;-55
2023/01/18 21:12:40;;;;;;;65.50;37.30;;;21.60;57.50;;;;;;221583;1254;24104;-55
2023/01/18 21:17:44;;;;;;;65.80;38.50;;;21.50;57.20;;;;;;221382;1248;24238;-54
2023/01/18 21:22:49;;;;;;;68.20;37.90;;;21.70;57.00;;;;;;221954;1251;22544;-54
2023/01/18 21:27:54;;;;;;;65.80;37.10;;;22.10;56.00;;;;;;221303;1250;22536;-55
2023/01/18 21:32:58;;;;;;;62.10;36.70;;;22.50;55.00;;;;;;222482;1247;24591;-54
2023/01/18 21:38:03;;;;;;;61.70;36.40;;;22.70;56.40;;;;;;221807;1267;22632;-56
2023/01/18 21:48:40;;;;;;;59.90;34.30;;;22.80;58.10;;;;;;221289;1263;22551;-54
2023/01/18 21:59:37;;;;;;;51.90;32.60;;;23.30;56.70;;;;;;221511;1263;25511;-54
2023/01/18 22:05:22;;;;;;;54.10;32.40;;;23.30;55.80;;;;;;223421;1257;22636;-54
2023/01/18 22:11:59;;;;;;;50.70;32.10;;;23.20;55.70;;;;;;221129;1250;22905;-53
2023/01/18 22:17:57;;;;;;;47.70;30.80;;;23.30;56.70;;;;;;221511;1263;22534;-51
2023/01/18 22:23:34;;;;;;;48.30;31.10;;;23.30;56.40;;;;;;221446;1262;22536;-52
2023/01/18 22:28:39;;;;;;;45.00;29.80;;;23.30;56.10;;;;;;221881;1269;23867;-53
2023/01/18 22:33:44;;;;;;;42.90;28.70;;;23.30;55.60;;;;;;221609;1259;22542;-52
2023/01/18 22:38:52;;;;;;;45.70;30.10;;;23.20;56.20;;;;;;221521;1259;27680;-51
2023/01/18 22:43:56;;;;;;;45.40;27.90;;;23.10;56.30;;;;;;221737;1263;23026;-52
2023/01/18 22:49:01;;;;;;;43.60;28.20;;;23.00;56.20;;;;;;221560;1267;24362;-52
2023/01/18 22:54:06;;;;;;;41.20;27.80;;;22.90;56.50;;;;;;221466;1267;23471;-53
2023/01/18 22:59:12;;;;;;;43.10;27.70;;;22.90;57.80;;;;;;221595;1256;23360;-52
2023/01/18 23:04:16;;;;;;;34.90;24.90;;;22.70;57.10;;;;;;221745;1263;24238;-52
2023/01/18 23:09:20;;;;;;;38.60;25.80;;;22.60;57.60;;;;;;222143;1254;24334;-52
2023/01/18 23:19:48;;;;;;;38.30;26.60;;;22.50;57.80;;;;;;221760;1270;22527;-52
2023/01/18 23:24:52;;;;;;;36.30;25.60;;;22.40;57.90;;;;;;221860;1263;24167;-48
2023/01/18 23:29:57;;;;;;;35.60;23.80;;;22.30;58.00;;;;;;221672;1257;23035;-52
2023/01/18 23:35:02;;;;;;;35.80;24.00;;;22.40;57.90;;;;;;221787;1250;25357;-50
2023/01/18 23:56:15;;;;;;;36.70;24.40;;;22.30;57.40;;;;;;221720;1263;24144;-49
